createdAt,value
2018-08-07T00:00:28.348Z,4.15
2018-08-07T00:02:57.093Z,3.70
2018-08-07T00:05:25.576Z,4.63
2018-08-07T00:07:55.079Z,3.93
2018-08-07T00:10:24.854Z,4.10
2018-08-07T00:12:53.595Z,5.43
2018-08-07T00:15:23.841Z,4.20
2018-08-07T00:17:52.272Z,4.60
2018-08-07T00:20:20.897Z,4.83
2018-08-07T00:22:49.286Z,4.57
2018-08-07T00:25:17.831Z,5.00
2018-08-07T00:27:46.353Z,4.60
2018-08-07T00:30:15.854Z,4.87
2018-08-07T00:32:44.407Z,4.47
2018-08-07T00:35:15.155Z,5.17
2018-08-07T00:37:43.708Z,6.23
2018-08-07T00:40:15.056Z,4.77
2018-08-07T00:42:44.112Z,4.80
2018-08-07T00:45:15.985Z,4.40
2018-08-07T00:47:44.521Z,4.43
2018-08-07T00:50:17.329Z,4.57
2018-08-07T00:52:46.960Z,4.65
2018-08-07T00:55:16.228Z,4.87
2018-08-07T00:57:44.777Z,4.90
2018-08-07T01:00:14.195Z,5.30
2018-08-07T01:02:42.734Z,5.17
2018-08-07T01:05:13.098Z,4.83
2018-08-07T01:07:41.612Z,4.50
2018-08-07T01:10:12.594Z,5.07
2018-08-07T01:12:41.170Z,4.60
2018-08-07T01:15:13.060Z,4.60
2018-08-07T01:17:41.683Z,4.70
2018-08-07T01:20:13.483Z,5.47
2018-08-07T01:22:43.031Z,5.15
2018-08-07T01:25:16.069Z,5.47
2018-08-07T01:27:44.632Z,5.30
2018-08-07T01:30:18.439Z,6.90
2018-08-07T01:32:46.955Z,4.93
2018-08-07T01:35:15.446Z,5.47
2018-08-07T01:37:43.525Z,5.13
2018-08-07T01:40:12.692Z,5.73
2018-08-07T01:42:41.613Z,5.57
2018-08-07T01:45:10.552Z,5.10
2018-08-07T01:47:39.383Z,4.80
2018-08-07T01:50:11.467Z,5.60
2018-08-07T01:52:39.593Z,5.70
2018-08-07T01:55:09.722Z,6.87
2018-08-07T01:57:38.256Z,5.27
2018-08-07T02:00:11.130Z,7.35
2018-08-07T02:02:44.933Z,8.03
2018-08-07T02:05:13.578Z,6.13
2018-08-07T02:07:42.847Z,5.63
2018-08-07T02:10:13.403Z,6.80
2018-08-07T02:12:42.182Z,5.50
2018-08-07T02:15:11.699Z,10.32
2018-08-07T02:17:40.231Z,6.43
2018-08-07T02:20:11.129Z,5.67
2018-08-07T02:22:40.265Z,5.45
2018-08-07T02:25:10.845Z,5.60
2018-08-07T02:27:39.351Z,5.60
2018-08-07T02:30:09.691Z,5.15
2018-08-07T02:32:38.762Z,5.30
2018-08-07T02:35:08.862Z,5.60
2018-08-07T02:37:37.284Z,5.23
2018-08-07T02:40:07.026Z,6.30
2018-08-07T02:42:35.428Z,6.30
2018-08-07T02:45:04.272Z,5.60
2018-08-07T02:47:32.793Z,5.60
2018-08-07T02:50:01.312Z,4.80
2018-08-07T02:52:29.739Z,5.20
2018-08-07T02:54:58.158Z,5.27
2018-08-07T02:57:26.670Z,5.10
2018-08-07T02:59:55.121Z,5.62
2018-08-07T03:02:23.522Z,5.43
2018-08-07T03:04:51.941Z,5.73
2018-08-07T03:07:20.380Z,5.80
2018-08-07T03:09:48.837Z,7.00
2018-08-07T03:12:17.355Z,6.30
2018-08-07T03:14:45.918Z,5.67
2018-08-07T03:17:14.371Z,6.63
2018-08-07T03:19:42.775Z,6.60
2018-08-07T03:22:11.191Z,13.33
2018-08-07T03:24:39.655Z,7.05
2018-08-07T03:27:08.094Z,5.50
2018-08-07T03:29:36.556Z,6.03
2018-08-07T03:32:05.135Z,13.00
2018-08-07T03:34:33.520Z,6.20
2018-08-07T03:37:02.091Z,5.93
2018-08-07T03:39:30.542Z,6.30
2018-08-07T03:41:59.001Z,5.40
2018-08-07T03:44:27.674Z,5.92
2018-08-07T03:46:56.209Z,5.90
2018-08-07T03:49:24.762Z,9.47
2018-08-07T03:51:53.187Z,11.70
2018-08-07T03:54:21.692Z,7.30
2018-08-07T03:56:50.128Z,6.40
2018-08-07T03:59:19.526Z,7.10
2018-08-07T04:01:48.048Z,6.10
2018-08-07T04:04:16.509Z,5.93
2018-08-07T04:06:44.955Z,6.77
2018-08-07T04:09:15.205Z,6.70
2018-08-07T04:11:43.823Z,6.28
2018-08-07T04:14:12.418Z,6.27
2018-08-07T04:16:47.044Z,6.20
2018-08-07T04:19:15.653Z,6.90
2018-08-07T04:21:44.081Z,7.30
2018-08-07T04:24:12.518Z,5.80
2018-08-07T04:26:40.961Z,6.97
2018-08-07T04:29:10.249Z,8.78
2018-08-07T04:31:38.764Z,6.20
2018-08-07T04:34:07.796Z,17.63
2018-08-07T04:36:36.388Z,6.10
2018-08-07T04:39:08.069Z,7.00
2018-08-07T04:41:36.556Z,6.50
2018-08-07T04:44:05.239Z,6.70
2018-08-07T04:46:33.653Z,7.13
2018-08-07T04:49:02.377Z,7.40
2018-08-07T04:51:30.973Z,6.80
2018-08-07T04:53:59.438Z,7.87
2018-08-07T04:56:28.046Z,9.03
2018-08-07T04:58:56.456Z,7.50
2018-08-07T05:01:25.649Z,6.65
2018-08-07T05:03:54.044Z,6.67
2018-08-07T05:06:22.525Z,7.40
2018-08-07T05:08:50.951Z,6.10
2018-08-07T05:11:19.652Z,6.80
2018-08-07T05:13:48.107Z,7.97
2018-08-07T05:16:16.642Z,6.55
2018-08-07T05:18:45.221Z,8.00
2018-08-07T05:21:13.756Z,6.10
2018-08-07T05:23:42.269Z,6.20
2018-08-07T05:26:10.874Z,9.53
2018-08-07T05:28:39.404Z,6.73
2018-08-07T05:31:08.099Z,7.53
2018-08-07T05:33:36.984Z,8.57
2018-08-07T05:36:05.453Z,8.90
2018-08-07T05:38:34.290Z,8.37
2018-08-07T05:41:02.914Z,8.98
2018-08-07T05:43:31.293Z,6.80
2018-08-07T05:46:00.534Z,10.30
2018-08-07T05:48:33.667Z,7.77
2018-08-07T05:51:02.403Z,6.20
2018-08-07T05:53:30.627Z,7.10
2018-08-07T05:55:59.128Z,6.80
2018-08-07T05:58:27.700Z,7.30
2018-08-07T06:00:56.106Z,5.65
2018-08-07T06:03:24.545Z,6.40
2018-08-07T06:05:53.041Z,6.30
2018-08-07T06:08:21.527Z,5.80
2018-08-07T06:10:49.967Z,6.80
2018-08-07T06:13:18.425Z,7.00
2018-08-07T06:15:46.837Z,6.27
2018-08-07T06:18:15.303Z,7.13
2018-08-07T06:20:43.693Z,6.80
2018-08-07T06:23:12.093Z,11.27
2018-08-07T06:25:40.537Z,5.90
2018-08-07T06:28:09.040Z,7.87
2018-08-07T06:30:37.520Z,6.43
2018-08-07T06:33:06.056Z,7.50
2018-08-07T06:35:34.467Z,8.40
2018-08-07T06:38:02.907Z,7.63
2018-08-07T06:40:31.356Z,5.70
2018-08-07T06:42:59.770Z,6.90
2018-08-07T06:45:29.424Z,7.03
2018-08-07T06:47:58.627Z,9.37
2018-08-07T06:50:27.125Z,6.77
2018-08-07T06:52:55.655Z,11.80
2018-08-07T06:55:24.131Z,6.20
2018-08-07T06:57:52.590Z,6.77
2018-08-07T07:00:25.238Z,8.40
2018-08-07T07:02:55.081Z,7.20
2018-08-07T07:05:23.485Z,6.70
2018-08-07T07:07:52.001Z,7.17
2018-08-07T07:10:20.452Z,7.05
2018-08-07T07:12:49.204Z,6.47
2018-08-07T07:15:18.037Z,6.30
2018-08-07T07:17:47.395Z,6.15
2018-08-07T07:20:16.758Z,7.03
2018-08-07T07:22:46.475Z,6.90
2018-08-07T07:25:14.929Z,7.77
2018-08-07T07:27:43.444Z,8.23
2018-08-07T07:30:18.352Z,9.70
2018-08-07T07:32:48.190Z,10.13
2018-08-07T07:35:17.144Z,9.95
2018-08-07T07:37:45.758Z,8.27
2018-08-07T07:40:14.347Z,9.80
2018-08-07T07:42:42.905Z,7.53
2018-08-07T07:45:15.191Z,8.50
2018-08-07T07:47:43.652Z,7.60
2018-08-07T07:50:14.504Z,7.70
2018-08-07T07:52:43.334Z,7.47
2018-08-07T07:55:13.203Z,8.93
2018-08-07T07:57:41.608Z,7.97
2018-08-07T08:00:29.400Z,7.80
2018-08-07T08:02:57.905Z,7.63
2018-08-07T08:05:26.849Z,8.27
2018-08-07T08:07:55.825Z,8.33
2018-08-07T08:10:24.267Z,9.00
2018-08-07T08:12:52.782Z,7.87
2018-08-07T08:15:21.268Z,8.30
2018-08-07T08:17:49.620Z,8.37
2018-08-07T08:20:20.540Z,12.33
2018-08-07T08:22:49.705Z,8.43
2018-08-07T08:25:18.169Z,9.60
2018-08-07T08:27:46.628Z,16.17
2018-08-07T08:30:15.924Z,9.27
2018-08-07T08:32:44.871Z,8.03
2018-08-07T08:35:15.552Z,10.32
2018-08-07T08:37:44.684Z,9.27
2018-08-07T08:40:14.709Z,9.40
2018-08-07T08:42:43.165Z,9.87
2018-08-07T08:45:14.859Z,9.70
2018-08-07T08:47:43.946Z,9.30
2018-08-07T08:50:14.390Z,9.87
2018-08-07T08:52:43.280Z,11.60
2018-08-07T08:55:11.892Z,9.87
2018-08-07T08:57:41.544Z,10.03
2018-08-07T09:00:16.025Z,11.43
2018-08-07T09:02:45.449Z,9.70
2018-08-07T09:05:14.026Z,9.80
2018-08-07T09:07:43.466Z,9.43
2018-08-07T09:10:23.586Z,13.90
2018-08-07T09:12:53.311Z,11.30
2018-08-07T09:15:22.091Z,10.40
2018-08-07T09:17:50.662Z,8.83
2018-08-07T09:20:22.065Z,10.23
2018-08-07T09:22:50.707Z,10.93
2018-08-07T09:25:19.835Z,8.90
2018-08-07T09:27:48.317Z,10.98
2018-08-07T09:30:20.354Z,14.83
2018-08-07T09:32:50.568Z,9.23
2018-08-07T09:35:20.004Z,10.33
2018-08-07T09:37:48.587Z,10.10
2018-08-07T09:40:18.420Z,10.40
2018-08-07T09:42:48.478Z,12.03
2018-08-07T09:45:19.997Z,10.47
2018-08-07T09:47:48.527Z,9.50
2018-08-07T09:50:18.076Z,10.70
2018-08-07T09:52:47.092Z,10.13
2018-08-07T09:55:16.409Z,9.50
2018-08-07T09:57:51.427Z,9.23
2018-08-07T10:00:25.959Z,9.88
2018-08-07T10:02:59.120Z,9.77
2018-08-07T10:05:29.049Z,9.50
2018-08-07T10:07:57.409Z,9.53
2018-08-07T10:10:26.214Z,9.60
2018-08-07T10:12:54.749Z,10.77
2018-08-07T10:15:23.183Z,9.37
2018-08-07T10:17:51.701Z,9.47
2018-08-07T10:20:20.157Z,8.98
2018-08-07T10:22:48.657Z,10.40
2018-08-07T10:25:18.857Z,9.30
2018-08-07T10:27:48.361Z,9.27
2018-08-07T10:30:18.126Z,11.05
2018-08-07T10:32:46.860Z,9.37
2018-08-07T10:35:15.650Z,9.90
2018-08-07T10:37:44.926Z,9.80
2018-08-07T10:40:16.077Z,11.50
2018-08-07T10:42:44.585Z,8.50
2018-08-07T10:45:17.509Z,9.27
2018-08-07T10:47:46.097Z,9.40
2018-08-07T10:50:18.102Z,10.55
2018-08-07T10:52:46.696Z,9.30
2018-08-07T10:55:15.144Z,8.30
2018-08-07T10:57:45.505Z,9.00
2018-08-07T11:00:29.482Z,9.53
2018-08-07T11:02:58.477Z,8.80
2018-08-07T11:05:27.489Z,9.10
2018-08-07T11:07:55.951Z,9.17
2018-08-07T11:10:24.514Z,9.43
2018-08-07T11:12:53.465Z,9.60
2018-08-07T11:15:36.696Z,10.03
2018-08-07T11:18:05.185Z,8.70
2018-08-07T11:20:33.658Z,9.10
2018-08-07T11:23:02.948Z,9.60
2018-08-07T11:25:32.200Z,9.20
2018-08-07T11:28:01.029Z,8.80
2018-08-07T11:30:30.142Z,8.80
2018-08-07T11:32:59.792Z,8.50
2018-08-07T11:35:28.652Z,8.50
2018-08-07T11:37:58.600Z,8.10
2018-08-07T11:40:27.205Z,8.20
2018-08-07T11:42:56.545Z,7.93
2018-08-07T11:45:27.587Z,7.53
2018-08-07T11:47:56.059Z,7.77
2018-08-07T11:50:26.789Z,7.20
2018-08-07T11:52:55.376Z,7.70
2018-08-07T11:55:24.452Z,7.60
2018-08-07T11:57:53.740Z,9.43
2018-08-07T12:00:29.369Z,8.28
2018-08-07T12:02:58.646Z,8.00
2018-08-07T12:05:27.081Z,8.87
2018-08-07T12:07:55.626Z,13.33
2018-08-07T12:10:24.079Z,8.87
2018-08-07T12:12:52.902Z,8.27
2018-08-07T12:15:22.731Z,8.43
2018-08-07T12:17:51.172Z,7.75
2018-08-07T12:20:19.654Z,9.33
2018-08-07T12:22:48.113Z,7.20
2018-08-07T12:25:17.345Z,7.20
2018-08-07T12:27:45.918Z,6.90
2018-08-07T12:30:19.828Z,6.83
2018-08-07T12:32:48.373Z,6.77
2018-08-07T12:35:16.965Z,6.77
2018-08-07T12:37:45.661Z,8.05
2018-08-07T12:40:19.586Z,7.27
2018-08-07T12:42:48.511Z,6.40
2018-08-07T12:45:17.014Z,6.10
2018-08-07T12:47:45.979Z,6.43
2018-08-07T12:50:15.698Z,6.23
2018-08-07T12:52:44.204Z,6.47
2018-08-07T12:55:14.792Z,6.47
2018-08-07T12:57:43.624Z,6.40
2018-08-07T13:00:20.637Z,9.83
2018-08-07T13:02:49.745Z,5.87
2018-08-07T13:05:18.452Z,7.13
2018-08-07T13:07:46.967Z,7.37
2018-08-07T13:10:17.628Z,7.50
2018-08-07T13:12:46.715Z,8.10
2018-08-07T13:15:16.538Z,8.17
2018-08-07T13:17:45.524Z,9.70
2018-08-07T13:20:14.024Z,8.67
2018-08-07T13:22:43.658Z,8.80
2018-08-07T13:25:13.876Z,9.00
2018-08-07T13:27:42.438Z,9.50
2018-08-07T13:30:13.626Z,9.00
2018-08-07T13:32:42.487Z,9.43
2018-08-07T13:35:11.305Z,8.90
2018-08-07T13:37:40.121Z,23.25
2018-08-07T13:40:11.201Z,16.23
2018-08-07T13:42:40.111Z,9.45
2018-08-07T13:45:10.525Z,16.13
2018-08-07T13:47:39.705Z,9.83
2018-08-07T13:50:11.441Z,9.47
2018-08-07T13:52:40.554Z,10.60
2018-08-07T13:55:09.032Z,9.37
2018-08-07T13:57:37.593Z,9.60
2018-08-07T14:00:15.728Z,9.13
2018-08-07T14:02:45.559Z,10.17
2018-08-07T14:05:15.067Z,9.77
2018-08-07T14:07:43.806Z,10.60
2018-08-07T14:10:13.497Z,9.20
2018-08-07T14:12:42.179Z,11.33
2018-08-07T14:15:12.327Z,10.03
2018-08-07T14:17:41.670Z,11.27
2018-08-07T14:20:12.091Z,10.80
2018-08-07T14:22:40.981Z,11.53
2018-08-07T14:25:12.576Z,11.73
2018-08-07T14:27:41.109Z,10.77
2018-08-07T14:30:15.942Z,16.50
2018-08-07T14:32:44.602Z,9.37
2018-08-07T14:35:13.957Z,9.50
2018-08-07T14:37:43.548Z,11.47
2018-08-07T14:40:13.932Z,10.87
2018-08-07T14:42:43.924Z,9.98
2018-08-07T14:45:14.282Z,10.50
2018-08-07T14:47:43.663Z,11.37
2018-08-07T14:50:14.917Z,10.20
2018-08-07T14:52:43.418Z,9.70
2018-08-07T14:55:12.174Z,9.10
2018-08-07T14:57:41.193Z,10.23
2018-08-07T15:00:12.785Z,11.20
2018-08-07T15:02:41.156Z,9.20
2018-08-07T15:05:10.561Z,9.13
2018-08-07T15:07:39.283Z,8.97
2018-08-07T15:10:12.830Z,9.05
2018-08-07T15:12:41.328Z,9.83
2018-08-07T15:15:15.038Z,10.93
2018-08-07T15:17:43.771Z,8.77
2018-08-07T15:20:14.028Z,10.07
2018-08-07T15:22:42.623Z,8.80
2018-08-07T15:25:13.142Z,9.00
2018-08-07T15:27:41.588Z,9.63
2018-08-07T15:30:14.475Z,9.63
2018-08-07T15:32:50.054Z,9.30
2018-08-07T15:35:19.798Z,9.00
2018-08-07T15:37:48.288Z,8.90
2018-08-07T15:40:17.250Z,9.60
2018-08-07T15:42:46.203Z,8.80
2018-08-07T15:45:16.282Z,12.37
2018-08-07T15:47:44.832Z,13.50
2018-08-07T15:50:15.164Z,10.43
2018-08-07T15:52:44.994Z,8.90
2018-08-07T15:55:16.563Z,9.33
2018-08-07T15:57:45.142Z,9.97
2018-08-07T16:00:22.124Z,9.53
2018-08-07T16:02:50.650Z,10.67
2018-08-07T16:05:19.206Z,9.00
2018-08-07T16:07:48.505Z,9.40
2018-08-07T16:10:18.373Z,9.30
2018-08-07T16:12:47.931Z,9.77
2018-08-07T16:15:17.491Z,9.33
2018-08-07T16:17:46.960Z,9.30
2018-08-07T16:20:15.659Z,9.00
2018-08-07T16:22:44.389Z,9.83
2018-08-07T16:25:14.113Z,8.95
2018-08-07T16:27:43.612Z,10.13
2018-08-07T16:30:17.387Z,9.53
2018-08-07T16:32:46.135Z,10.17
2018-08-07T16:35:15.272Z,9.67
2018-08-07T16:37:43.956Z,9.47
2018-08-07T16:40:21.545Z,8.43
2018-08-07T16:42:50.748Z,8.53
2018-08-07T16:45:20.344Z,7.80
2018-08-07T16:47:48.917Z,7.53
2018-08-07T16:50:28.392Z,7.03
2018-08-07T16:52:57.659Z,7.67
2018-08-07T16:55:28.883Z,7.40
2018-08-07T16:57:57.481Z,7.60
2018-08-07T17:00:26.044Z,8.13
2018-08-07T17:02:54.600Z,8.27
2018-08-07T17:05:23.061Z,7.30
2018-08-07T17:07:51.555Z,7.77
2018-08-07T17:10:23.646Z,8.00
2018-08-07T17:12:52.140Z,7.70
2018-08-07T17:15:20.651Z,8.33
2018-08-07T17:17:49.455Z,6.70
2018-08-07T17:20:19.471Z,7.47
2018-08-07T17:22:48.225Z,6.90
2018-08-07T17:25:17.936Z,6.72
2018-08-07T17:27:47.170Z,6.70
2018-08-07T17:30:16.972Z,6.13
2018-08-07T17:32:45.757Z,6.90
2018-08-07T17:35:16.881Z,6.23
2018-08-07T17:37:45.394Z,8.53
2018-08-07T17:40:15.412Z,6.57
2018-08-07T17:42:43.950Z,6.80
2018-08-07T17:45:12.877Z,6.50
2018-08-07T17:47:41.314Z,7.22
2018-08-07T17:50:11.805Z,6.87
2018-08-07T17:52:40.433Z,8.07
2018-08-07T17:55:09.450Z,6.43
2018-08-07T17:57:38.293Z,6.23
2018-08-07T18:00:12.853Z,6.97
2018-08-07T18:02:41.512Z,7.63
2018-08-07T18:05:10.764Z,6.67
2018-08-07T18:07:40.062Z,9.87
2018-08-07T18:10:10.131Z,7.80
2018-08-07T18:12:38.717Z,7.40
2018-08-07T18:15:09.805Z,8.63
2018-08-07T18:17:38.321Z,8.25
2018-08-07T18:20:08.461Z,9.75
2018-08-07T18:22:37.813Z,6.40
2018-08-07T18:25:06.364Z,7.37
2018-08-07T18:27:35.689Z,7.17
2018-08-07T18:30:10.575Z,7.27
2018-08-07T18:32:40.734Z,7.87
2018-08-07T18:35:10.799Z,6.67
2018-08-07T18:37:39.264Z,8.10
2018-08-07T18:40:08.503Z,7.20
2018-08-07T18:42:37.160Z,6.93
2018-08-07T18:45:07.493Z,7.57
2018-08-07T18:47:36.201Z,7.33
2018-08-07T18:50:06.148Z,6.70
2018-08-07T18:52:34.720Z,6.75
2018-08-07T18:55:03.202Z,6.90
2018-08-07T18:57:31.615Z,6.05
2018-08-07T19:00:00.185Z,6.93
2018-08-07T19:02:28.680Z,6.70
2018-08-07T19:04:57.096Z,6.80
2018-08-07T19:07:25.584Z,7.13
2018-08-07T19:09:54.019Z,6.57
2018-08-07T19:12:23.255Z,6.57
2018-08-07T19:14:52.188Z,7.25
2018-08-07T19:17:20.604Z,7.30
2018-08-07T19:19:51.102Z,8.20
2018-08-07T19:22:19.606Z,7.10
2018-08-07T19:24:48.171Z,8.57
2018-08-07T19:27:17.996Z,6.97
2018-08-07T19:29:46.429Z,7.03
2018-08-07T19:32:15.969Z,7.00
2018-08-07T19:34:45.529Z,7.80
2018-08-07T19:37:14.084Z,7.67
2018-08-07T19:40:00.022Z,11.17
2018-08-07T19:42:28.835Z,9.50
2018-08-07T19:44:57.380Z,8.27
2018-08-07T19:47:25.864Z,7.57
2018-08-07T19:49:56.041Z,8.20
2018-08-07T19:52:24.622Z,7.97
2018-08-07T19:54:53.170Z,10.77
2018-08-07T19:57:21.823Z,8.83
2018-08-07T19:59:50.344Z,7.97
2018-08-07T20:02:18.857Z,7.87
2018-08-07T20:04:47.398Z,8.27
2018-08-07T20:07:15.870Z,8.40
2018-08-07T20:09:44.436Z,10.13
2018-08-07T20:12:13.012Z,8.37
2018-08-07T20:14:41.458Z,8.27
2018-08-07T20:17:10.619Z,8.00
2018-08-07T20:20:00.777Z,7.27
2018-08-07T20:22:30.164Z,8.30
2018-08-07T20:25:22.881Z,7.73
2018-08-07T20:27:52.022Z,7.97
2018-08-07T20:30:21.844Z,9.73
2018-08-07T20:32:52.202Z,8.43
2018-08-07T20:35:22.419Z,8.50
2018-08-07T20:37:51.613Z,8.67
2018-08-07T20:40:23.420Z,8.78
2018-08-07T20:42:52.539Z,8.80
2018-08-07T20:45:21.790Z,9.87
2018-08-07T20:47:50.280Z,9.00
2018-08-07T20:50:21.204Z,9.73
2018-08-07T20:52:50.284Z,9.50
2018-08-07T20:55:18.908Z,10.13
2018-08-07T20:57:47.432Z,14.03
2018-08-07T21:00:22.364Z,11.03
2018-08-07T21:02:51.001Z,9.87
2018-08-07T21:05:19.624Z,11.03
2018-08-07T21:07:48.164Z,12.13
2018-08-07T21:10:21.361Z,9.43
2018-08-07T21:12:49.891Z,12.57
2018-08-07T21:15:18.747Z,10.15
2018-08-07T21:17:47.669Z,10.77
2018-08-07T21:20:25.360Z,9.80
2018-08-07T21:23:04.437Z,9.17
2018-08-07T21:25:32.983Z,13.87
2018-08-07T21:28:03.571Z,9.90
2018-08-07T21:30:32.977Z,13.17
2018-08-07T21:33:23.816Z,9.03
2018-08-07T21:35:53.377Z,9.37
2018-08-07T21:38:21.799Z,8.80
2018-08-07T21:40:50.293Z,10.97
2018-08-07T21:43:18.772Z,10.17
2018-08-07T21:45:49.695Z,10.07
2018-08-07T21:48:18.204Z,9.00
2018-08-07T21:50:46.645Z,10.25
2018-08-07T21:53:15.092Z,13.48
2018-08-07T21:55:43.594Z,10.33
2018-08-07T21:58:12.004Z,9.43
2018-08-07T22:00:49.104Z,9.65
2018-08-07T22:03:17.568Z,9.88
2018-08-07T22:05:46.288Z,10.17
2018-08-07T22:08:15.320Z,10.17
2018-08-07T22:10:43.909Z,10.93
2018-08-07T22:13:12.335Z,9.70
2018-08-07T22:15:40.773Z,12.40
2018-08-07T22:18:10.687Z,10.17
2018-08-07T22:20:39.871Z,9.80
2018-08-07T22:23:08.304Z,9.73
2018-08-07T22:25:36.853Z,11.13
2018-08-07T22:28:05.686Z,9.40
2018-08-07T22:30:37.817Z,9.38
2018-08-07T22:33:06.772Z,10.35
2018-08-07T22:35:35.237Z,13.70
2018-08-07T22:38:03.735Z,10.10
2018-08-07T22:40:32.163Z,11.23
2018-08-07T22:43:00.716Z,9.47
2018-08-07T22:45:29.111Z,9.63
2018-08-07T22:47:57.542Z,10.37
2018-08-07T22:50:25.967Z,10.30
2018-08-07T22:52:54.412Z,9.30
2018-08-07T22:55:22.804Z,12.10
2018-08-07T22:57:51.304Z,8.73
2018-08-07T23:00:21.483Z,10.67
2018-08-07T23:02:49.755Z,9.20
2018-08-07T23:05:18.732Z,8.97
2018-08-07T23:07:47.167Z,9.17
2018-08-07T23:10:17.848Z,9.73
2018-08-07T23:12:46.374Z,9.60
2018-08-07T23:15:16.105Z,8.75
2018-08-07T23:17:44.929Z,11.57
2018-08-07T23:20:14.848Z,7.70
2018-08-07T23:22:43.277Z,8.07
2018-08-07T23:25:12.226Z,10.20
2018-08-07T23:27:40.640Z,8.38
2018-08-07T23:30:12.338Z,8.40
2018-08-07T23:32:40.827Z,7.63
2018-08-07T23:35:09.472Z,7.78
2018-08-07T23:37:37.921Z,8.10
2018-08-07T23:40:07.982Z,8.47
2018-08-07T23:42:37.598Z,8.18
2018-08-07T23:45:07.400Z,8.37
2018-08-07T23:47:35.985Z,8.97
2018-08-07T23:50:04.237Z,8.43
2018-08-07T23:52:32.661Z,9.00
2018-08-07T23:55:01.348Z,9.53
2018-08-07T23:57:29.760Z,9.63
2018-08-07T23:59:58.185Z,8.67
